sensor_id;sensor_type;location;lat;lon;timestamp;P1;durP1;ratioP1;P2;durP2;ratioP2
7213;SDS011;3648;50.614;13.830;2023-05-10T00:01:16;2.50;;;2.20;;
7213;SDS011;3648;50.614;13.830;2023-05-10T00:03:43;2.30;;;2.10;;
7213;SDS011;3648;50.614;13.830;2023-05-10T00:06:10;1.70;;;1.60;;
7213;SDS011;3648;50.614;13.830;2023-05-10T00:08:37;1.87;;;1.67;;
7213;SDS011;3648;50.614;13.830;2023-05-10T00:11:04;1.97;;;1.77;;
7213;SDS011;3648;50.614;13.830;2023-05-10T00:13:32;2.40;;;2.10;;
7213;SDS011;3648;50.614;13.830;2023-05-10T00:15:59;3.73;;;2.73;;
7213;SDS011;3648;50.614;13.830;2023-05-10T00:18:26;2.40;;;2.20;;
7213;SDS011;3648;50.614;13.830;2023-05-10T00:20:53;4.13;;;1.93;;
7213;SDS011;3648;50.614;13.830;2023-05-10T00:23:20;1.90;;;1.80;;
7213;SDS011;3648;50.614;13.830;2023-05-10T00:25:47;3.30;;;1.80;;
7213;SDS011;3648;50.614;13.830;2023-05-10T00:28:14;2.40;;;2.20;;
7213;SDS011;3648;50.614;13.830;2023-05-10T00:30:42;2.20;;;1.90;;
7213;SDS011;3648;50.614;13.830;2023-05-10T00:33:09;1.93;;;1.77;;
7213;SDS011;3648;50.614;13.830;2023-05-10T00:35:37;2.00;;;1.80;;
7213;SDS011;3648;50.614;13.830;2023-05-10T00:38:04;2.63;;;1.60;;
7213;SDS011;3648;50.614;13.830;2023-05-10T00:40:31;1.73;;;1.60;;
7213;SDS011;3648;50.614;13.830;2023-05-10T00:42:58;1.90;;;1.77;;
7213;SDS011;3648;50.614;13.830;2023-05-10T00:45:26;2.10;;;1.80;;
7213;SDS011;3648;50.614;13.830;2023-05-10T00:47:55;2.23;;;2.03;;
7213;SDS011;3648;50.614;13.830;2023-05-10T00:50:23;2.47;;;1.87;;
7213;SDS011;3648;50.614;13.830;2023-05-10T00:52:50;2.97;;;2.03;;
7213;SDS011;3648;50.614;13.830;2023-05-10T00:55:17;3.17;;;1.83;;
7213;SDS011;3648;50.614;13.830;2023-05-10T00:57:44;3.90;;;1.87;;
7213;SDS011;3648;50.614;13.830;2023-05-10T01:00:12;2.77;;;2.00;;
7213;SDS011;3648;50.614;13.830;2023-05-10T01:02:43;2.17;;;1.67;;
7213;SDS011;3648;50.614;13.830;2023-05-10T01:05:12;2.03;;;1.83;;
7213;SDS011;3648;50.614;13.830;2023-05-10T01:07:39;2.10;;;1.90;;
7213;SDS011;3648;50.614;13.830;2023-05-10T01:10:07;2.37;;;1.87;;
7213;SDS011;3648;50.614;13.830;2023-05-10T01:12:36;2.20;;;1.90;;
7213;SDS011;3648;50.614;13.830;2023-05-10T01:15:05;1.70;;;1.43;;
7213;SDS011;3648;50.614;13.830;2023-05-10T01:17:34;1.77;;;1.67;;
7213;SDS011;3648;50.614;13.830;2023-05-10T01:20:02;3.23;;;2.10;;
7213;SDS011;3648;50.614;13.830;2023-05-10T01:22:40;2.23;;;1.50;;
7213;SDS011;3648;50.614;13.830;2023-05-10T01:25:43;1.90;;;1.70;;
7213;SDS011;3648;50.614;13.830;2023-05-10T01:28:37;1.90;;;1.70;;
7213;SDS011;3648;50.614;13.830;2023-05-10T01:31:31;2.27;;;1.73;;
7213;SDS011;3648;50.614;13.830;2023-05-10T01:34:23;2.50;;;1.60;;
7213;SDS011;3648;50.614;13.830;2023-05-10T01:36:55;2.10;;;1.57;;
7213;SDS011;3648;50.614;13.830;2023-05-10T01:39:30;2.77;;;1.80;;
7213;SDS011;3648;50.614;13.830;2023-05-10T01:42:03;2.10;;;1.90;;
7213;SDS011;3648;50.614;13.830;2023-05-10T01:44:37;1.70;;;1.60;;
7213;SDS011;3648;50.614;13.830;2023-05-10T01:47:11;1.70;;;1.60;;
7213;SDS011;3648;50.614;13.830;2023-05-10T01:49:41;2.10;;;1.90;;
7213;SDS011;3648;50.614;13.830;2023-05-10T01:52:12;2.30;;;1.93;;
7213;SDS011;3648;50.614;13.830;2023-05-10T01:54:45;2.73;;;1.80;;
7213;SDS011;3648;50.614;13.830;2023-05-10T01:57:16;2.10;;;1.47;;
7213;SDS011;3648;50.614;13.830;2023-05-10T01:59:45;3.37;;;2.07;;
7213;SDS011;3648;50.614;13.830;2023-05-10T02:02:17;2.07;;;1.83;;
7213;SDS011;3648;50.614;13.830;2023-05-10T02:04:46;1.70;;;1.60;;
7213;SDS011;3648;50.614;13.830;2023-05-10T02:07:15;2.20;;;1.63;;
7213;SDS011;3648;50.614;13.830;2023-05-10T02:09:44;2.07;;;1.90;;
7213;SDS011;3648;50.614;13.830;2023-05-10T02:12:13;5.13;;;1.83;;
7213;SDS011;3648;50.614;13.830;2023-05-10T02:14:41;1.90;;;1.70;;
7213;SDS011;3648;50.614;13.830;2023-05-10T02:17:09;2.13;;;1.80;;
7213;SDS011;3648;50.614;13.830;2023-05-10T02:19:39;1.43;;;1.33;;
7213;SDS011;3648;50.614;13.830;2023-05-10T02:22:08;2.07;;;1.87;;
7213;SDS011;3648;50.614;13.830;2023-05-10T02:24:35;2.20;;;2.00;;
7213;SDS011;3648;50.614;13.830;2023-05-10T02:27:03;2.87;;;1.93;;
7213;SDS011;3648;50.614;13.830;2023-05-10T02:29:32;3.20;;;1.80;;
7213;SDS011;3648;50.614;13.830;2023-05-10T02:31:59;3.37;;;1.73;;
7213;SDS011;3648;50.614;13.830;2023-05-10T02:34:27;3.10;;;1.77;;
7213;SDS011;3648;50.614;13.830;2023-05-10T02:36:57;3.13;;;1.77;;
7213;SDS011;3648;50.614;13.830;2023-05-10T02:39:25;2.17;;;1.97;;
7213;SDS011;3648;50.614;13.830;2023-05-10T02:41:54;1.80;;;1.60;;
7213;SDS011;3648;50.614;13.830;2023-05-10T02:44:23;1.80;;;1.70;;
7213;SDS011;3648;50.614;13.830;2023-05-10T02:46:51;2.80;;;2.17;;
7213;SDS011;3648;50.614;13.830;2023-05-10T02:49:17;2.47;;;1.90;;
7213;SDS011;3648;50.614;13.830;2023-05-10T02:51:47;2.70;;;1.80;;
7213;SDS011;3648;50.614;13.830;2023-05-10T02:54:20;2.53;;;1.90;;
7213;SDS011;3648;50.614;13.830;2023-05-10T02:56:56;3.10;;;2.07;;
7213;SDS011;3648;50.614;13.830;2023-05-10T02:59:25;1.70;;;1.60;;
7213;SDS011;3648;50.614;13.830;2023-05-10T03:01:52;3.63;;;2.27;;
7213;SDS011;3648;50.614;13.830;2023-05-10T03:04:19;2.50;;;1.77;;
7213;SDS011;3648;50.614;13.830;2023-05-10T03:06:46;2.43;;;2.07;;
7213;SDS011;3648;50.614;13.830;2023-05-10T03:09:14;2.63;;;2.10;;
7213;SDS011;3648;50.614;13.830;2023-05-10T03:11:56;2.47;;;1.80;;
7213;SDS011;3648;50.614;13.830;2023-05-10T03:14:34;3.93;;;2.27;;
7213;SDS011;3648;50.614;13.830;2023-05-10T03:17:10;1.80;;;1.70;;
7213;SDS011;3648;50.614;13.830;2023-05-10T03:19:43;2.07;;;1.70;;
7213;SDS011;3648;50.614;13.830;2023-05-10T03:22:17;3.03;;;2.10;;
7213;SDS011;3648;50.614;13.830;2023-05-10T03:24:51;2.30;;;1.80;;
7213;SDS011;3648;50.614;13.830;2023-05-10T03:27:23;2.10;;;1.90;;
7213;SDS011;3648;50.614;13.830;2023-05-10T03:29:53;3.20;;;1.70;;
7213;SDS011;3648;50.614;13.830;2023-05-10T03:32:22;2.37;;;1.70;;
7213;SDS011;3648;50.614;13.830;2023-05-10T03:34:49;2.40;;;1.83;;
7213;SDS011;3648;50.614;13.830;2023-05-10T03:37:16;2.27;;;1.87;;
7213;SDS011;3648;50.614;13.830;2023-05-10T03:39:43;1.77;;;1.53;;
7213;SDS011;3648;50.614;13.830;2023-05-10T03:42:10;3.27;;;2.13;;
7213;SDS011;3648;50.614;13.830;2023-05-10T03:44:39;1.73;;;1.63;;
7213;SDS011;3648;50.614;13.830;2023-05-10T03:47:06;1.80;;;1.63;;
7213;SDS011;3648;50.614;13.830;2023-05-10T03:49:33;2.47;;;1.97;;
7213;SDS011;3648;50.614;13.830;2023-05-10T03:52:00;2.00;;;1.80;;
7213;SDS011;3648;50.614;13.830;2023-05-10T03:54:27;2.20;;;2.00;;
7213;SDS011;3648;50.614;13.830;2023-05-10T03:56:54;2.10;;;1.90;;
7213;SDS011;3648;50.614;13.830;2023-05-10T03:59:21;2.97;;;2.00;;
7213;SDS011;3648;50.614;13.830;2023-05-10T04:01:50;4.07;;;1.90;;
7213;SDS011;3648;50.614;13.830;2023-05-10T04:04:17;2.77;;;1.93;;
7213;SDS011;3648;50.614;13.830;2023-05-10T04:06:45;2.43;;;2.20;;
7213;SDS011;3648;50.614;13.830;2023-05-10T04:09:12;3.07;;;2.30;;
7213;SDS011;3648;50.614;13.830;2023-05-10T04:11:40;2.83;;;2.10;;
7213;SDS011;3648;50.614;13.830;2023-05-10T04:14:07;2.60;;;1.90;;
7213;SDS011;3648;50.614;13.830;2023-05-10T04:16:34;2.30;;;2.00;;
7213;SDS011;3648;50.614;13.830;2023-05-10T04:19:02;2.77;;;2.10;;
7213;SDS011;3648;50.614;13.830;2023-05-10T04:21:29;2.23;;;2.03;;
7213;SDS011;3648;50.614;13.830;2023-05-10T04:23:56;2.03;;;1.90;;
7213;SDS011;3648;50.614;13.830;2023-05-10T04:26:23;2.83;;;2.00;;
7213;SDS011;3648;50.614;13.830;2023-05-10T04:28:50;2.30;;;2.03;;
7213;SDS011;3648;50.614;13.830;2023-05-10T04:31:17;3.37;;;2.40;;
7213;SDS011;3648;50.614;13.830;2023-05-10T04:33:44;2.20;;;2.00;;
7213;SDS011;3648;50.614;13.830;2023-05-10T04:36:12;1.93;;;1.83;;
7213;SDS011;3648;50.614;13.830;2023-05-10T04:38:39;2.30;;;2.00;;
7213;SDS011;3648;50.614;13.830;2023-05-10T04:41:08;1.90;;;1.80;;
7213;SDS011;3648;50.614;13.830;2023-05-10T04:43:35;2.30;;;2.10;;
7213;SDS011;3648;50.614;13.830;2023-05-10T04:46:03;2.30;;;2.10;;
7213;SDS011;3648;50.614;13.830;2023-05-10T04:48:31;2.40;;;2.20;;
7213;SDS011;3648;50.614;13.830;2023-05-10T04:50:58;2.30;;;2.10;;
7213;SDS011;3648;50.614;13.830;2023-05-10T04:53:26;3.00;;;1.93;;
7213;SDS011;3648;50.614;13.830;2023-05-10T04:55:53;3.53;;;1.87;;
7213;SDS011;3648;50.614;13.830;2023-05-10T04:58:20;15.40;;;2.90;;
7213;SDS011;3648;50.614;13.830;2023-05-10T05:00:47;2.70;;;1.93;;
7213;SDS011;3648;50.614;13.830;2023-05-10T05:03:14;2.10;;;1.90;;
7213;SDS011;3648;50.614;13.830;2023-05-10T05:05:41;2.77;;;1.97;;
7213;SDS011;3648;50.614;13.830;2023-05-10T05:08:08;2.10;;;1.90;;
7213;SDS011;3648;50.614;13.830;2023-05-10T05:10:36;2.73;;;2.00;;
7213;SDS011;3648;50.614;13.830;2023-05-10T05:13:03;2.50;;;1.80;;
7213;SDS011;3648;50.614;13.830;2023-05-10T05:15:30;2.53;;;1.93;;
7213;SDS011;3648;50.614;13.830;2023-05-10T05:17:57;2.17;;;1.97;;
7213;SDS011;3648;50.614;13.830;2023-05-10T05:20:24;2.30;;;2.00;;
7213;SDS011;3648;50.614;13.830;2023-05-10T05:22:51;2.60;;;1.77;;
7213;SDS011;3648;50.614;13.830;2023-05-10T05:25:17;3.17;;;2.20;;
7213;SDS011;3648;50.614;13.830;2023-05-10T05:27:46;4.53;;;2.10;;
7213;SDS011;3648;50.614;13.830;2023-05-10T05:30:13;4.80;;;2.13;;
7213;SDS011;3648;50.614;13.830;2023-05-10T05:32:40;2.90;;;2.07;;
7213;SDS011;3648;50.614;13.830;2023-05-10T05:35:07;3.53;;;2.07;;
7213;SDS011;3648;50.614;13.830;2023-05-10T05:37:34;3.20;;;2.20;;
7213;SDS011;3648;50.614;13.830;2023-05-10T05:40:02;1.90;;;1.70;;
7213;SDS011;3648;50.614;13.830;2023-05-10T05:42:30;3.17;;;2.20;;
7213;SDS011;3648;50.614;13.830;2023-05-10T05:44:59;2.30;;;1.70;;
7213;SDS011;3648;50.614;13.830;2023-05-10T05:47:26;2.53;;;1.60;;
7213;SDS011;3648;50.614;13.830;2023-05-10T05:49:53;2.53;;;1.80;;
7213;SDS011;3648;50.614;13.830;2023-05-10T05:52:20;2.23;;;2.03;;
7213;SDS011;3648;50.614;13.830;2023-05-10T05:54:47;2.10;;;1.97;;
7213;SDS011;3648;50.614;13.830;2023-05-10T05:57:14;2.03;;;1.83;;
7213;SDS011;3648;50.614;13.830;2023-05-10T05:59:41;2.40;;;2.20;;
7213;SDS011;3648;50.614;13.830;2023-05-10T06:02:10;2.07;;;1.90;;
7213;SDS011;3648;50.614;13.830;2023-05-10T06:04:37;2.37;;;1.80;;
7213;SDS011;3648;50.614;13.830;2023-05-10T06:07:04;2.27;;;2.00;;
7213;SDS011;3648;50.614;13.830;2023-05-10T06:09:31;3.23;;;2.07;;
7213;SDS011;3648;50.614;13.830;2023-05-10T06:11:59;2.27;;;1.93;;
7213;SDS011;3648;50.614;13.830;2023-05-10T06:14:26;2.10;;;1.80;;
7213;SDS011;3648;50.614;13.830;2023-05-10T06:16:53;2.20;;;2.00;;
7213;SDS011;3648;50.614;13.830;2023-05-10T06:19:21;2.13;;;1.67;;
7213;SDS011;3648;50.614;13.830;2023-05-10T06:21:48;4.60;;;1.93;;
7213;SDS011;3648;50.614;13.830;2023-05-10T06:24:16;1.80;;;1.70;;
7213;SDS011;3648;50.614;13.830;2023-05-10T06:26:42;2.73;;;2.23;;
7213;SDS011;3648;50.614;13.830;2023-05-10T06:29:10;1.93;;;1.57;;
7213;SDS011;3648;50.614;13.830;2023-05-10T06:31:37;3.43;;;2.30;;
7213;SDS011;3648;50.614;13.830;2023-05-10T06:34:04;4.93;;;2.03;;
7213;SDS011;3648;50.614;13.830;2023-05-10T06:36:34;2.77;;;1.90;;
7213;SDS011;3648;50.614;13.830;2023-05-10T06:39:01;2.50;;;2.00;;
7213;SDS011;3648;50.614;13.830;2023-05-10T06:41:28;2.30;;;2.10;;
7213;SDS011;3648;50.614;13.830;2023-05-10T06:43:55;1.83;;;1.67;;
7213;SDS011;3648;50.614;13.830;2023-05-10T06:46:22;3.60;;;1.70;;
7213;SDS011;3648;50.614;13.830;2023-05-10T06:48:49;2.37;;;1.80;;
7213;SDS011;3648;50.614;13.830;2023-05-10T06:51:16;2.67;;;2.03;;
7213;SDS011;3648;50.614;13.830;2023-05-10T06:53:44;5.90;;;2.27;;
7213;SDS011;3648;50.614;13.830;2023-05-10T06:56:11;5.27;;;1.80;;
7213;SDS011;3648;50.614;13.830;2023-05-10T06:58:39;2.00;;;1.70;;
7213;SDS011;3648;50.614;13.830;2023-05-10T07:01:06;1.63;;;1.53;;
7213;SDS011;3648;50.614;13.830;2023-05-10T07:03:33;2.30;;;2.10;;
7213;SDS011;3648;50.614;13.830;2023-05-10T07:06:00;2.87;;;2.30;;
7213;SDS011;3648;50.614;13.830;2023-05-10T07:08:29;2.93;;;2.27;;
7213;SDS011;3648;50.614;13.830;2023-05-10T07:11:00;2.90;;;2.20;;
7213;SDS011;3648;50.614;13.830;2023-05-10T07:13:28;3.80;;;1.90;;
7213;SDS011;3648;50.614;13.830;2023-05-10T07:15:56;2.63;;;2.00;;
7213;SDS011;3648;50.614;13.830;2023-05-10T07:18:23;3.33;;;2.20;;
7213;SDS011;3648;50.614;13.830;2023-05-10T07:20:50;2.80;;;2.07;;
7213;SDS011;3648;50.614;13.830;2023-05-10T07:23:17;2.70;;;1.83;;
7213;SDS011;3648;50.614;13.830;2023-05-10T07:25:45;2.57;;;2.20;;
7213;SDS011;3648;50.614;13.830;2023-05-10T07:28:14;3.00;;;1.90;;
7213;SDS011;3648;50.614;13.830;2023-05-10T07:30:41;9.90;;;2.97;;
7213;SDS011;3648;50.614;13.830;2023-05-10T07:33:09;3.03;;;2.50;;
7213;SDS011;3648;50.614;13.830;2023-05-10T07:35:37;3.80;;;2.60;;
7213;SDS011;3648;50.614;13.830;2023-05-10T07:38:04;7.30;;;2.20;;
7213;SDS011;3648;50.614;13.830;2023-05-10T07:40:31;2.53;;;2.13;;
7213;SDS011;3648;50.614;13.830;2023-05-10T07:42:58;3.03;;;2.13;;
7213;SDS011;3648;50.614;13.830;2023-05-10T07:45:28;3.37;;;2.37;;
7213;SDS011;3648;50.614;13.830;2023-05-10T07:47:55;8.53;;;2.77;;
7213;SDS011;3648;50.614;13.830;2023-05-10T07:50:21;4.13;;;3.17;;
7213;SDS011;3648;50.614;13.830;2023-05-10T07:52:48;2.63;;;2.43;;
7213;SDS011;3648;50.614;13.830;2023-05-10T07:55:15;2.30;;;2.10;;
7213;SDS011;3648;50.614;13.830;2023-05-10T07:57:45;3.43;;;2.27;;
7213;SDS011;3648;50.614;13.830;2023-05-10T08:00:12;2.50;;;2.30;;
7213;SDS011;3648;50.614;13.830;2023-05-10T08:02:44;3.13;;;2.83;;
7213;SDS011;3648;50.614;13.830;2023-05-10T08:05:11;2.87;;;2.57;;
7213;SDS011;3648;50.614;13.830;2023-05-10T08:07:38;3.93;;;2.53;;
7213;SDS011;3648;50.614;13.830;2023-05-10T08:10:06;2.80;;;2.40;;
7213;SDS011;3648;50.614;13.830;2023-05-10T08:12:34;7.60;;;3.10;;
7213;SDS011;3648;50.614;13.830;2023-05-10T08:15:01;4.67;;;2.53;;
7213;SDS011;3648;50.614;13.830;2023-05-10T08:17:28;2.33;;;2.13;;
7213;SDS011;3648;50.614;13.830;2023-05-10T08:19:56;2.70;;;2.50;;
7213;SDS011;3648;50.614;13.830;2023-05-10T08:22:23;2.53;;;2.20;;
7213;SDS011;3648;50.614;13.830;2023-05-10T08:24:51;3.23;;;2.50;;
7213;SDS011;3648;50.614;13.830;2023-05-10T08:27:17;3.33;;;2.40;;
7213;SDS011;3648;50.614;13.830;2023-05-10T08:29:44;2.97;;;2.50;;
7213;SDS011;3648;50.614;13.830;2023-05-10T08:32:11;3.10;;;2.60;;
7213;SDS011;3648;50.614;13.830;2023-05-10T08:34:38;2.93;;;2.50;;
7213;SDS011;3648;50.614;13.830;2023-05-10T08:37:07;3.70;;;2.70;;
7213;SDS011;3648;50.614;13.830;2023-05-10T08:39:34;3.20;;;2.90;;
7213;SDS011;3648;50.614;13.830;2023-05-10T08:42:02;3.20;;;2.30;;
7213;SDS011;3648;50.614;13.830;2023-05-10T08:44:31;2.43;;;2.23;;
7213;SDS011;3648;50.614;13.830;2023-05-10T08:47:01;3.27;;;2.50;;
7213;SDS011;3648;50.614;13.830;2023-05-10T08:49:31;3.60;;;2.77;;
7213;SDS011;3648;50.614;13.830;2023-05-10T08:52:00;2.93;;;2.60;;
7213;SDS011;3648;50.614;13.830;2023-05-10T08:54:32;2.47;;;2.20;;
7213;SDS011;3648;50.614;13.830;2023-05-10T08:57:00;2.50;;;2.20;;
7213;SDS011;3648;50.614;13.830;2023-05-10T08:59:27;2.43;;;2.23;;
7213;SDS011;3648;50.614;13.830;2023-05-10T09:01:55;2.43;;;2.23;;
7213;SDS011;3648;50.614;13.830;2023-05-10T09:04:24;2.63;;;2.40;;
7213;SDS011;3648;50.614;13.830;2023-05-10T09:06:51;3.23;;;2.90;;
7213;SDS011;3648;50.614;13.830;2023-05-10T09:09:18;2.43;;;2.23;;
7213;SDS011;3648;50.614;13.830;2023-05-10T09:11:48;3.13;;;2.70;;
7213;SDS011;3648;50.614;13.830;2023-05-10T09:14:15;2.63;;;2.00;;
7213;SDS011;3648;50.614;13.830;2023-05-10T09:16:43;2.73;;;2.30;;
7213;SDS011;3648;50.614;13.830;2023-05-10T09:19:10;2.77;;;2.53;;
7213;SDS011;3648;50.614;13.830;2023-05-10T09:21:37;5.93;;;2.57;;
7213;SDS011;3648;50.614;13.830;2023-05-10T09:24:05;5.57;;;2.77;;
7213;SDS011;3648;50.614;13.830;2023-05-10T09:26:32;2.93;;;2.63;;
7213;SDS011;3648;50.614;13.830;2023-05-10T09:29:02;3.57;;;2.43;;
7213;SDS011;3648;50.614;13.830;2023-05-10T09:31:44;5.87;;;2.63;;
7213;SDS011;3648;50.614;13.830;2023-05-10T09:34:15;2.63;;;2.43;;
7213;SDS011;3648;50.614;13.830;2023-05-10T09:36:50;7.27;;;3.03;;
7213;SDS011;3648;50.614;13.830;2023-05-10T09:39:19;3.33;;;2.63;;
7213;SDS011;3648;50.614;13.830;2023-05-10T09:41:46;2.80;;;2.60;;
7213;SDS011;3648;50.614;13.830;2023-05-10T09:44:17;3.63;;;2.30;;
7213;SDS011;3648;50.614;13.830;2023-05-10T09:46:49;2.70;;;2.50;;
7213;SDS011;3648;50.614;13.830;2023-05-10T09:49:17;3.13;;;2.57;;
7213;SDS011;3648;50.614;13.830;2023-05-10T09:51:45;3.13;;;2.60;;
7213;SDS011;3648;50.614;13.830;2023-05-10T09:54:13;2.73;;;2.53;;
7213;SDS011;3648;50.614;13.830;2023-05-10T09:56:41;3.00;;;2.70;;
7213;SDS011;3648;50.614;13.830;2023-05-10T09:59:10;2.90;;;2.70;;
7213;SDS011;3648;50.614;13.830;2023-05-10T10:01:39;2.90;;;2.70;;
7213;SDS011;3648;50.614;13.830;2023-05-10T10:04:08;3.53;;;2.67;;
7213;SDS011;3648;50.614;13.830;2023-05-10T10:06:36;3.20;;;2.70;;
7213;SDS011;3648;50.614;13.830;2023-05-10T10:09:03;3.20;;;2.90;;
7213;SDS011;3648;50.614;13.830;2023-05-10T10:11:34;2.67;;;2.43;;
7213;SDS011;3648;50.614;13.830;2023-05-10T10:14:03;3.20;;;2.90;;
7213;SDS011;3648;50.614;13.830;2023-05-10T10:16:31;2.93;;;2.70;;
7213;SDS011;3648;50.614;13.830;2023-05-10T10:19:00;2.73;;;2.23;;
7213;SDS011;3648;50.614;13.830;2023-05-10T10:21:27;2.50;;;2.30;;
7213;SDS011;3648;50.614;13.830;2023-05-10T10:23:55;3.47;;;2.77;;
7213;SDS011;3648;50.614;13.830;2023-05-10T10:26:22;4.43;;;2.80;;
7213;SDS011;3648;50.614;13.830;2023-05-10T10:28:51;2.50;;;2.30;;
7213;SDS011;3648;50.614;13.830;2023-05-10T10:31:32;3.10;;;2.80;;
7213;SDS011;3648;50.614;13.830;2023-05-10T10:34:08;3.20;;;2.90;;
7213;SDS011;3648;50.614;13.830;2023-05-10T10:36:46;3.53;;;2.97;;
7213;SDS011;3648;50.614;13.830;2023-05-10T10:39:13;3.20;;;2.90;;
7213;SDS011;3648;50.614;13.830;2023-05-10T10:41:48;3.03;;;2.83;;
7213;SDS011;3648;50.614;13.830;2023-05-10T10:44:22;3.40;;;3.10;;
7213;SDS011;3648;50.614;13.830;2023-05-10T10:47:00;9.77;;;4.17;;
7213;SDS011;3648;50.614;13.830;2023-05-10T10:49:32;4.50;;;2.80;;
7213;SDS011;3648;50.614;13.830;2023-05-10T10:52:12;3.37;;;3.03;;
7213;SDS011;3648;50.614;13.830;2023-05-10T10:54:40;3.20;;;2.90;;
7213;SDS011;3648;50.614;13.830;2023-05-10T10:57:10;3.40;;;2.63;;
7213;SDS011;3648;50.614;13.830;2023-05-10T10:59:41;5.07;;;3.87;;
7213;SDS011;3648;50.614;13.830;2023-05-10T11:02:09;3.20;;;2.90;;
7213;SDS011;3648;50.614;13.830;2023-05-10T11:04:43;3.50;;;3.20;;
7213;SDS011;3648;50.614;13.830;2023-05-10T11:07:18;8.73;;;3.57;;
7213;SDS011;3648;50.614;13.830;2023-05-10T11:09:45;4.90;;;3.73;;
7213;SDS011;3648;50.614;13.830;2023-05-10T11:12:13;4.80;;;3.30;;
7213;SDS011;3648;50.614;13.830;2023-05-10T11:14:40;3.50;;;3.20;;
7213;SDS011;3648;50.614;13.830;2023-05-10T11:17:22;3.90;;;3.17;;
7213;SDS011;3648;50.614;13.830;2023-05-10T11:20:07;3.47;;;3.17;;
7213;SDS011;3648;50.614;13.830;2023-05-10T11:22:48;4.07;;;3.30;;
7213;SDS011;3648;50.614;13.830;2023-05-10T11:25:16;3.30;;;3.00;;
7213;SDS011;3648;50.614;13.830;2023-05-10T11:27:43;3.57;;;3.27;;
7213;SDS011;3648;50.614;13.830;2023-05-10T11:30:11;4.03;;;2.70;;
7213;SDS011;3648;50.614;13.830;2023-05-10T11:32:40;3.80;;;2.83;;
7213;SDS011;3648;50.614;13.830;2023-05-10T11:35:09;2.90;;;2.70;;
7213;SDS011;3648;50.614;13.830;2023-05-10T11:37:37;2.77;;;2.53;;
7213;SDS011;3648;50.614;13.830;2023-05-10T11:40:09;5.50;;;3.50;;
7213;SDS011;3648;50.614;13.830;2023-05-10T11:42:37;3.30;;;3.00;;
7213;SDS011;3648;50.614;13.830;2023-05-10T11:45:04;3.13;;;2.80;;
7213;SDS011;3648;50.614;13.830;2023-05-10T11:47:32;4.30;;;3.30;;
7213;SDS011;3648;50.614;13.830;2023-05-10T11:50:00;3.10;;;2.80;;
7213;SDS011;3648;50.614;13.830;2023-05-10T11:52:29;3.07;;;2.77;;
7213;SDS011;3648;50.614;13.830;2023-05-10T11:55:02;2.60;;;2.40;;
7213;SDS011;3648;50.614;13.830;2023-05-10T11:57:30;3.60;;;2.90;;
7213;SDS011;3648;50.614;13.830;2023-05-10T11:59:57;3.10;;;2.80;;
7213;SDS011;3648;50.614;13.830;2023-05-10T12:02:24;2.90;;;2.70;;
7213;SDS011;3648;50.614;13.830;2023-05-10T12:04:51;3.60;;;2.87;;
7213;SDS011;3648;50.614;13.830;2023-05-10T12:07:18;2.83;;;2.63;;
7213;SDS011;3648;50.614;13.830;2023-05-10T12:12:37;3.30;;;3.00;;
7213;SDS011;3648;50.614;13.830;2023-05-10T12:15:07;3.20;;;2.80;;
7213;SDS011;3648;50.614;13.830;2023-05-10T12:17:37;3.23;;;2.60;;
7213;SDS011;3648;50.614;13.830;2023-05-10T12:20:15;2.70;;;2.50;;
7213;SDS011;3648;50.614;13.830;2023-05-10T12:22:49;4.00;;;2.87;;
7213;SDS011;3648;50.614;13.830;2023-05-10T12:25:19;2.73;;;2.53;;
7213;SDS011;3648;50.614;13.830;2023-05-10T12:27:48;4.53;;;2.93;;
7213;SDS011;3648;50.614;13.830;2023-05-10T12:30:20;6.53;;;3.87;;
7213;SDS011;3648;50.614;13.830;2023-05-10T12:32:48;3.20;;;2.77;;
7213;SDS011;3648;50.614;13.830;2023-05-10T12:35:15;3.50;;;3.00;;
7213;SDS011;3648;50.614;13.830;2023-05-10T12:37:42;3.00;;;2.70;;
7213;SDS011;3648;50.614;13.830;2023-05-10T12:40:10;3.60;;;3.07;;
7213;SDS011;3648;50.614;13.830;2023-05-10T12:42:39;3.30;;;3.00;;
7213;SDS011;3648;50.614;13.830;2023-05-10T12:45:07;3.33;;;3.03;;
7213;SDS011;3648;50.614;13.830;2023-05-10T12:47:35;3.37;;;3.07;;
7213;SDS011;3648;50.614;13.830;2023-05-10T12:50:02;3.17;;;2.87;;
7213;SDS011;3648;50.614;13.830;2023-05-10T12:52:30;4.03;;;3.00;;
7213;SDS011;3648;50.614;13.830;2023-05-10T12:54:58;4.07;;;3.20;;
7213;SDS011;3648;50.614;13.830;2023-05-10T12:57:25;3.83;;;3.53;;
7213;SDS011;3648;50.614;13.830;2023-05-10T12:59:54;3.03;;;2.73;;
7213;SDS011;3648;50.614;13.830;2023-05-10T13:02:21;3.23;;;2.93;;
7213;SDS011;3648;50.614;13.830;2023-05-10T13:04:48;4.30;;;3.30;;
7213;SDS011;3648;50.614;13.830;2023-05-10T13:07:16;3.23;;;2.93;;
7213;SDS011;3648;50.614;13.830;2023-05-10T13:09:42;4.07;;;3.33;;
7213;SDS011;3648;50.614;13.830;2023-05-10T13:12:09;6.67;;;3.47;;
7213;SDS011;3648;50.614;13.830;2023-05-10T13:14:36;6.37;;;3.97;;
7213;SDS011;3648;50.614;13.830;2023-05-10T13:17:06;4.67;;;3.90;;
7213;SDS011;3648;50.614;13.830;2023-05-10T13:19:34;4.03;;;3.63;;
7213;SDS011;3648;50.614;13.830;2023-05-10T13:22:01;4.77;;;3.90;;
7213;SDS011;3648;50.614;13.830;2023-05-10T13:24:28;4.23;;;3.30;;
7213;SDS011;3648;50.614;13.830;2023-05-10T13:26:55;4.17;;;3.63;;
7213;SDS011;3648;50.614;13.830;2023-05-10T13:29:22;3.93;;;3.50;;
7213;SDS011;3648;50.614;13.830;2023-05-10T13:31:49;5.07;;;4.00;;
7213;SDS011;3648;50.614;13.830;2023-05-10T13:34:18;4.70;;;3.50;;
7213;SDS011;3648;50.614;13.830;2023-05-10T13:36:46;4.67;;;3.17;;
7213;SDS011;3648;50.614;13.830;2023-05-10T13:39:13;6.33;;;3.90;;
7213;SDS011;3648;50.614;13.830;2023-05-10T13:41:41;6.10;;;3.33;;
7213;SDS011;3648;50.614;13.830;2023-05-10T13:44:08;4.53;;;2.53;;
7213;SDS011;3648;50.614;13.830;2023-05-10T13:46:35;3.90;;;3.50;;
7213;SDS011;3648;50.614;13.830;2023-05-10T13:49:03;4.90;;;3.33;;
7213;SDS011;3648;50.614;13.830;2023-05-10T13:51:32;5.50;;;3.90;;
7213;SDS011;3648;50.614;13.830;2023-05-10T13:54:00;4.03;;;3.47;;
7213;SDS011;3648;50.614;13.830;2023-05-10T13:56:28;4.20;;;3.80;;
7213;SDS011;3648;50.614;13.830;2023-05-10T13:58:55;4.50;;;4.10;;
7213;SDS011;3648;50.614;13.830;2023-05-10T14:01:23;4.93;;;3.70;;
7213;SDS011;3648;50.614;13.830;2023-05-10T14:03:50;4.47;;;3.67;;
7213;SDS011;3648;50.614;13.830;2023-05-10T14:06:17;4.10;;;3.20;;
7213;SDS011;3648;50.614;13.830;2023-05-10T14:08:46;4.83;;;3.30;;
7213;SDS011;3648;50.614;13.830;2023-05-10T14:11:13;3.47;;;3.17;;
7213;SDS011;3648;50.614;13.830;2023-05-10T14:13:40;12.97;;;3.97;;
7213;SDS011;3648;50.614;13.830;2023-05-10T14:16:07;4.40;;;3.50;;
7213;SDS011;3648;50.614;13.830;2023-05-10T14:18:34;5.43;;;3.80;;
7213;SDS011;3648;50.614;13.830;2023-05-10T14:21:01;4.97;;;3.60;;
7213;SDS011;3648;50.614;13.830;2023-05-10T14:23:29;4.23;;;3.83;;
7213;SDS011;3648;50.614;13.830;2023-05-10T14:25:58;6.67;;;4.53;;
7213;SDS011;3648;50.614;13.830;2023-05-10T14:28:25;5.97;;;4.63;;
7213;SDS011;3648;50.614;13.830;2023-05-10T14:30:52;5.70;;;4.80;;
7213;SDS011;3648;50.614;13.830;2023-05-10T14:33:19;5.43;;;4.20;;
7213;SDS011;3648;50.614;13.830;2023-05-10T14:35:46;6.40;;;4.47;;
7213;SDS011;3648;50.614;13.830;2023-05-10T14:38:13;7.57;;;4.97;;
7213;SDS011;3648;50.614;13.830;2023-05-10T14:40:41;23.90;;;13.97;;
7213;SDS011;3648;50.614;13.830;2023-05-10T14:43:10;66.87;;;36.70;;
7213;SDS011;3648;50.614;13.830;2023-05-10T14:45:37;62.93;;;32.80;;
7213;SDS011;3648;50.614;13.830;2023-05-10T14:48:04;53.30;;;30.53;;
7213;SDS011;3648;50.614;13.830;2023-05-10T14:50:31;36.93;;;21.10;;
7213;SDS011;3648;50.614;13.830;2023-05-10T14:52:58;42.47;;;28.33;;
7213;SDS011;3648;50.614;13.830;2023-05-10T14:55:25;25.63;;;16.57;;
7213;SDS011;3648;50.614;13.830;2023-05-10T14:57:52;24.57;;;15.60;;
7213;SDS011;3648;50.614;13.830;2023-05-10T15:00:21;14.63;;;10.80;;
7213;SDS011;3648;50.614;13.830;2023-05-10T15:02:48;15.93;;;9.73;;
7213;SDS011;3648;50.614;13.830;2023-05-10T15:05:15;52.40;;;30.30;;
7213;SDS011;3648;50.614;13.830;2023-05-10T15:07:43;33.70;;;21.70;;
7213;SDS011;3648;50.614;13.830;2023-05-10T15:10:10;42.27;;;20.93;;
7213;SDS011;3648;50.614;13.830;2023-05-10T15:12:38;85.20;;;41.67;;